createdAt,value
2018-12-04T00:04:32.279Z,4.53
2018-12-04T00:09:36.534Z,4.57
2018-12-04T00:14:41.765Z,5.30
2018-12-04T00:19:47.826Z,4.23
2018-12-04T00:24:51.335Z,7.33
2018-12-04T00:29:55.552Z,6.33
2018-12-04T00:35:00.393Z,7.40
2018-12-04T00:40:05.558Z,4.70
2018-12-04T00:45:09.891Z,6.00
2018-12-04T00:50:14.225Z,4.53
2018-12-04T00:55:17.933Z,4.80
2018-12-04T01:00:21.693Z,4.20
2018-12-04T01:05:26.238Z,6.00
2018-12-04T01:10:30.075Z,4.57
2018-12-04T01:16:31.227Z,6.07
2018-12-04T01:21:41.416Z,5.33
2018-12-04T01:26:45.274Z,6.00
2018-12-04T01:31:49.619Z,5.40
2018-12-04T01:37:07.901Z,4.70
2018-12-04T01:42:11.880Z,6.30
2018-12-04T01:47:22.492Z,5.53
2018-12-04T01:57:58.904Z,6.33
2018-12-04T02:03:08.628Z,4.80
2018-12-04T02:08:13.846Z,7.30
2018-12-04T02:13:18.509Z,5.57
2018-12-04T02:18:22.727Z,7.07
2018-12-04T02:23:27.676Z,6.80
2018-12-04T02:28:36.849Z,5.00
2018-12-04T02:33:41.230Z,5.60
2018-12-04T02:38:46.087Z,7.57
2018-12-04T02:43:49.542Z,7.63
2018-12-04T02:49:16.636Z,5.10
2018-12-04T02:54:20.450Z,6.60
2018-12-04T02:59:24.125Z,7.58
2018-12-04T03:04:28.034Z,7.40
2018-12-04T03:09:31.863Z,7.00
2018-12-04T03:14:39.206Z,6.30
2018-12-04T03:19:43.444Z,7.70
2018-12-04T03:24:47.277Z,6.20
2018-12-04T03:29:50.766Z,6.83
2018-12-04T03:34:54.257Z,6.20
2018-12-04T03:39:58.399Z,5.17
2018-12-04T03:45:02.405Z,8.70
2018-12-04T03:50:08.036Z,7.40
2018-12-04T03:55:12.893Z,8.80
2018-12-04T04:00:16.766Z,6.23
2018-12-04T04:05:22.485Z,4.67
2018-12-04T04:10:32.394Z,5.53
2018-12-04T04:15:40.876Z,5.03
2018-12-04T04:20:45.463Z,4.13
2018-12-04T04:25:55.820Z,3.23
2018-12-04T04:30:59.570Z,4.00
2018-12-04T04:36:04.997Z,4.20
2018-12-04T04:41:09.886Z,4.00
2018-12-04T04:46:14.834Z,4.60
2018-12-04T04:51:19.237Z,5.50
2018-12-04T04:56:23.726Z,5.10
2018-12-04T05:01:29.602Z,4.43
2018-12-04T05:06:33.441Z,3.40
2018-12-04T05:11:38.114Z,3.30
2018-12-04T05:16:42.743Z,4.20
2018-12-04T05:21:46.279Z,6.53
2018-12-04T05:26:51.283Z,4.07
2018-12-04T05:31:55.156Z,3.77
2018-12-04T05:37:00.253Z,3.30
2018-12-04T05:42:06.311Z,2.50
2018-12-04T05:47:10.113Z,3.97
2018-12-04T05:52:13.616Z,4.30
2018-12-04T05:57:17.133Z,3.80
2018-12-04T06:02:21.069Z,5.30
2018-12-04T06:07:24.581Z,5.03
2018-12-04T06:12:28.784Z,5.57
2018-12-04T06:17:32.320Z,6.53
2018-12-04T06:22:37.121Z,6.73
2018-12-04T06:27:44.227Z,4.30
2018-12-04T06:32:47.769Z,5.70
2018-12-04T06:38:35.965Z,4.70
2018-12-04T06:43:38.741Z,4.30
2018-12-04T06:48:40.914Z,5.27
2018-12-04T06:53:42.859Z,4.50
2018-12-04T06:58:44.796Z,7.30
2018-12-04T07:03:46.725Z,5.50
2018-12-04T07:14:27.466Z,5.20
2018-12-04T07:19:30.140Z,6.20
2018-12-04T07:24:35.407Z,5.87
2018-12-04T07:29:37.897Z,7.07
2018-12-04T07:34:41.054Z,5.97
2018-12-04T07:39:43.100Z,6.33
2018-12-04T07:44:45.204Z,6.10
2018-12-04T07:49:46.989Z,5.33
2018-12-04T07:54:48.813Z,4.90
2018-12-04T07:59:50.593Z,4.80
2018-12-04T08:04:52.389Z,4.57
2018-12-04T08:09:54.157Z,4.20
2018-12-04T08:14:57.158Z,5.93
2018-12-04T08:19:59.185Z,4.93
2018-12-04T08:25:04.580Z,5.27
2018-12-04T08:30:07.096Z,5.53
2018-12-04T08:35:09.584Z,5.60
2018-12-04T08:40:11.386Z,6.53
2018-12-04T08:45:13.536Z,5.17
2018-12-04T08:50:15.614Z,5.17
2018-12-04T08:55:17.401Z,6.13
2018-12-04T09:00:23.760Z,5.03
2018-12-04T09:05:30.827Z,5.20
2018-12-04T09:10:33.417Z,4.83
2018-12-04T09:15:35.239Z,3.90
2018-12-04T09:20:37.350Z,3.30
2018-12-04T09:25:39.125Z,2.80
2018-12-04T09:30:41.184Z,4.60
2018-12-04T09:35:42.937Z,3.43
2018-12-04T09:40:44.689Z,4.70
2018-12-04T09:45:46.460Z,4.33
2018-12-04T09:51:05.161Z,4.03
2018-12-04T09:56:10.412Z,3.10
2018-12-04T10:01:12.140Z,4.70
2018-12-04T10:06:13.893Z,5.73
2018-12-04T10:11:15.681Z,6.30
2018-12-04T10:16:17.551Z,6.40
2018-12-04T10:21:19.917Z,7.43
2018-12-04T10:26:21.721Z,6.77
2018-12-04T10:31:23.489Z,7.07
2018-12-04T10:36:25.511Z,5.60
2018-12-04T10:41:27.305Z,6.17
2018-12-04T10:46:30.308Z,6.97
2018-12-04T10:51:32.400Z,7.20
2018-12-04T10:56:34.610Z,5.70
2018-12-04T11:01:45.803Z,4.43
2018-12-04T11:06:47.912Z,3.90
2018-12-04T11:11:49.701Z,4.47
2018-12-04T11:16:52.092Z,5.97
2018-12-04T11:21:54.002Z,5.50
2018-12-04T11:26:56.078Z,6.17
2018-12-04T11:31:57.816Z,5.77
2018-12-04T11:37:01.624Z,4.60
2018-12-04T11:42:03.560Z,3.97
2018-12-04T11:47:05.390Z,4.33
2018-12-04T11:52:07.226Z,3.77
2018-12-04T11:57:09.572Z,4.73
2018-12-04T12:02:16.125Z,4.77
2018-12-04T12:07:20.661Z,4.93
2018-12-04T12:12:23.545Z,4.63
2018-12-04T12:17:27.858Z,3.90
2018-12-04T12:22:30.161Z,3.70
2018-12-04T12:27:32.859Z,5.80
2018-12-04T12:32:34.950Z,5.87
2018-12-04T12:37:36.767Z,5.03
2018-12-04T12:42:38.552Z,5.00
2018-12-04T12:47:42.673Z,5.23
2018-12-04T12:52:44.729Z,5.80
2018-12-04T12:57:48.991Z,4.17
2018-12-04T13:02:51.076Z,3.73
2018-12-04T13:07:52.902Z,4.10
2018-12-04T13:12:54.701Z,4.20
2018-12-04T13:17:56.522Z,4.80
2018-12-04T13:22:58.317Z,4.60
2018-12-04T13:28:00.439Z,5.67
2018-12-04T13:33:02.268Z,3.80
2018-12-04T13:38:04.255Z,3.57
2018-12-04T13:43:06.060Z,5.40
2018-12-04T13:48:07.847Z,4.50
2018-12-04T13:53:09.932Z,5.73
2018-12-04T13:58:11.749Z,5.60
2018-12-04T14:03:16.567Z,4.20
2018-12-04T14:08:22.145Z,6.23
2018-12-04T14:13:24.312Z,4.10
2018-12-04T14:18:29.795Z,5.07
2018-12-04T14:23:32.080Z,3.80
2018-12-04T14:28:33.882Z,3.97
2018-12-04T14:33:35.738Z,4.80
2018-12-04T14:38:37.526Z,4.53
2018-12-04T14:43:39.298Z,3.90
2018-12-04T14:48:41.810Z,3.70
2018-12-04T14:53:43.570Z,5.10
2018-12-04T15:04:13.998Z,4.37
2018-12-04T15:09:17.825Z,5.60
2018-12-04T15:14:19.769Z,4.47
2018-12-04T15:19:21.615Z,6.73
2018-12-04T15:24:23.698Z,4.13
2018-12-04T15:29:25.477Z,6.03
2018-12-04T15:34:27.214Z,5.47
2018-12-04T15:39:30.337Z,7.63
2018-12-04T15:44:32.332Z,4.10
2018-12-04T15:49:34.109Z,6.40
2018-12-04T15:54:36.569Z,5.23
2018-12-04T15:59:39.503Z,5.57
2018-12-04T16:04:41.325Z,5.17
2018-12-04T16:09:43.536Z,5.67
2018-12-04T16:14:45.351Z,4.47
2018-12-04T16:19:47.550Z,5.83
2018-12-04T16:24:50.217Z,5.80
2018-12-04T16:29:52.355Z,5.47
2018-12-04T16:34:55.045Z,5.47
2018-12-04T16:39:58.015Z,6.30
2018-12-04T16:44:59.793Z,5.70
2018-12-04T16:50:01.634Z,7.10
2018-12-04T16:55:08.786Z,5.20
2018-12-04T17:00:11.052Z,5.90
2018-12-04T17:05:12.830Z,6.10
2018-12-04T17:10:22.251Z,4.80
2018-12-04T17:15:19.012Z,4.77
2018-12-04T17:20:21.323Z,5.80
2018-12-04T17:25:23.685Z,3.63
2018-12-04T17:30:25.921Z,4.03
2018-12-04T17:35:29.398Z,3.47
2018-12-04T17:40:34.459Z,3.70
2018-12-04T17:45:39.472Z,4.20
2018-12-04T17:50:41.592Z,4.60
2018-12-04T17:55:44.250Z,4.00
2018-12-04T18:00:46.856Z,3.53
2018-12-04T18:05:51.605Z,4.13
2018-12-04T18:10:54.274Z,4.07
2018-12-04T18:15:56.487Z,5.30
2018-12-04T18:20:58.963Z,4.43
2018-12-04T18:26:01.545Z,4.00
2018-12-04T18:31:05.076Z,4.67
2018-12-04T18:36:07.405Z,3.47
2018-12-04T18:41:09.610Z,4.07
2018-12-04T18:46:11.744Z,3.80
2018-12-04T18:51:13.928Z,3.30
2018-12-04T18:56:17.403Z,2.30
2018-12-04T19:01:20.477Z,2.70
2018-12-04T19:06:23.166Z,3.53
2018-12-04T19:11:25.198Z,1.90
2018-12-04T19:16:27.557Z,2.60
2018-12-04T19:21:30.581Z,2.30
2018-12-04T19:26:33.877Z,1.80
2018-12-04T19:31:37.260Z,1.73
2018-12-04T19:36:41.759Z,1.80
2018-12-04T19:41:44.073Z,1.90
2018-12-04T19:46:46.644Z,2.20
2018-12-04T19:51:50.515Z,2.93
2018-12-04T19:56:55.425Z,2.20
2018-12-04T20:01:57.745Z,1.80
2018-12-04T20:07:00.885Z,2.53
2018-12-04T20:12:03.276Z,1.90
2018-12-04T20:17:06.776Z,2.70
2018-12-04T20:22:10.361Z,2.30
2018-12-04T20:27:13.007Z,2.67
2018-12-04T20:32:15.432Z,2.83
2018-12-04T20:37:18.753Z,2.60
2018-12-04T20:42:23.408Z,2.97
2018-12-04T20:47:25.595Z,3.67
2018-12-04T20:52:27.801Z,4.50
2018-12-04T20:57:32.789Z,3.30
2018-12-04T21:02:35.869Z,4.13
2018-12-04T21:07:38.868Z,3.77
2018-12-04T21:12:41.236Z,3.30
2018-12-04T21:17:44.325Z,3.77
2018-12-04T21:22:47.785Z,4.43
2018-12-04T21:27:56.542Z,4.00
2018-12-04T21:38:17.825Z,3.50
2018-12-04T21:43:25.961Z,3.07
2018-12-04T21:48:28.569Z,3.30
2018-12-04T21:53:30.946Z,3.10
2018-12-04T21:58:32.971Z,3.00
2018-12-04T22:03:35.002Z,3.30
2018-12-04T22:08:37.282Z,2.50
2018-12-04T22:13:40.394Z,3.17
2018-12-04T22:18:42.278Z,2.77
2018-12-04T22:23:44.144Z,2.70
2018-12-04T22:28:46.130Z,2.10
2018-12-04T22:33:48.009Z,10.50
2018-12-04T22:38:50.116Z,3.10
2018-12-04T22:43:51.965Z,3.23
2018-12-04T22:48:54.517Z,3.70
2018-12-04T22:53:57.337Z,2.60
2018-12-04T22:58:59.338Z,4.30
2018-12-04T23:04:19.138Z,3.97
2018-12-04T23:09:20.909Z,5.27
2018-12-04T23:14:26.902Z,3.80
2018-12-04T23:19:29.082Z,4.17
2018-12-04T23:24:31.064Z,4.20
2018-12-04T23:29:32.997Z,4.33
2018-12-04T23:34:35.597Z,2.63
2018-12-04T23:39:37.504Z,2.50
2018-12-04T23:44:39.606Z,2.10
2018-12-04T23:49:42.527Z,2.17
2018-12-04T23:54:52.227Z,2.30
2018-12-04T23:59:54.023Z,2.73
